createdAt,value
2023-07-29T00:01:35.861Z,16.90
2023-07-29T00:04:03.262Z,17.50
2023-07-29T00:06:30.219Z,17.20
2023-07-29T00:08:57.103Z,16.90
2023-07-29T00:11:24.011Z,16.80
2023-07-29T00:13:52.019Z,16.80
2023-07-29T00:16:19.067Z,16.80
2023-07-29T00:18:46.151Z,17.40
2023-07-29T00:21:13.166Z,16.70
2023-07-29T00:23:40.080Z,18.60
2023-07-29T00:26:07.033Z,18.60
2023-07-29T00:28:34.030Z,16.80
2023-07-29T00:31:01.123Z,16.80
2023-07-29T00:33:28.110Z,19.50
2023-07-29T00:35:55.008Z,16.90
2023-07-29T00:38:21.956Z,16.80
2023-07-29T00:40:49.058Z,16.80
2023-07-29T00:43:15.960Z,16.90
2023-07-29T00:45:42.984Z,18.40
2023-07-29T00:48:10.043Z,18.70
2023-07-29T00:50:37.112Z,17.30
2023-07-29T00:53:04.039Z,19.30
2023-07-29T00:55:31.016Z,18.10
2023-07-29T00:57:57.971Z,17.00
2023-07-29T01:00:25.883Z,17.80
2023-07-29T01:02:53.902Z,17.10
2023-07-29T01:05:20.930Z,17.00
2023-07-29T01:08:23.154Z,17.10
2023-07-29T01:10:59.799Z,17.10
2023-07-29T01:13:35.238Z,17.10
2023-07-29T01:16:40.038Z,17.10
2023-07-29T01:19:10.371Z,17.10
2023-07-29T01:21:37.447Z,17.60
2023-07-29T01:24:04.665Z,17.20
2023-07-29T01:26:31.866Z,17.20
2023-07-29T01:29:00.765Z,17.20
2023-07-29T01:31:41.114Z,17.30
2023-07-29T01:34:41.830Z,17.30
2023-07-29T01:37:09.201Z,17.30
2023-07-29T01:39:36.189Z,17.80
2023-07-29T01:42:03.206Z,17.40
2023-07-29T01:44:30.114Z,17.40
2023-07-29T01:46:57.795Z,18.30
2023-07-29T01:49:24.704Z,17.40
2023-07-29T01:51:51.619Z,18.40
2023-07-29T01:54:18.506Z,19.10
2023-07-29T01:56:45.476Z,17.50
2023-07-29T01:59:12.938Z,17.60
2023-07-29T02:01:40.037Z,18.10
2023-07-29T02:04:07.020Z,19.50
2023-07-29T02:06:34.627Z,18.10
2023-07-29T02:09:01.883Z,19.30
2023-07-29T02:11:29.297Z,17.70
2023-07-29T02:13:56.962Z,17.70
2023-07-29T02:16:24.070Z,17.80
2023-07-29T02:18:52.994Z,17.70
2023-07-29T02:21:21.432Z,17.70
2023-07-29T02:23:48.407Z,19.00
2023-07-29T02:26:15.289Z,17.80
2023-07-29T02:28:42.161Z,18.10
2023-07-29T02:31:18.656Z,19.80
2023-07-29T02:33:46.518Z,17.80
2023-07-29T02:36:14.311Z,17.80
2023-07-29T02:38:41.805Z,17.80
2023-07-29T02:41:10.674Z,20.10
2023-07-29T02:43:37.763Z,20.20
2023-07-29T02:46:04.987Z,20.30
2023-07-29T02:48:31.970Z,17.70
2023-07-29T02:50:59.330Z,20.00
2023-07-29T02:53:26.337Z,17.80
2023-07-29T02:55:53.287Z,19.80
2023-07-29T02:58:21.343Z,20.20
2023-07-29T03:00:49.879Z,20.10
2023-07-29T03:03:17.855Z,18.20
2023-07-29T03:05:45.770Z,17.70
2023-07-29T03:08:14.041Z,19.60
2023-07-29T03:10:41.013Z,17.70
2023-07-29T03:13:08.043Z,17.80
2023-07-29T03:15:36.209Z,17.70
2023-07-29T03:18:03.213Z,17.80
2023-07-29T03:20:30.223Z,18.70
2023-07-29T03:22:57.303Z,17.80
2023-07-29T03:25:24.563Z,17.80
2023-07-29T03:27:51.896Z,17.80
2023-07-29T03:30:22.851Z,18.20
2023-07-29T03:32:50.818Z,17.80
2023-07-29T03:35:17.985Z,17.80
2023-07-29T03:37:44.974Z,19.50
2023-07-29T03:40:11.981Z,17.80
2023-07-29T03:42:38.980Z,17.80
2023-07-29T03:45:06.449Z,18.40
2023-07-29T03:47:33.483Z,17.80
2023-07-29T03:50:00.993Z,18.00
2023-07-29T03:52:27.934Z,20.20
2023-07-29T03:54:54.829Z,17.90
2023-07-29T03:57:21.768Z,17.80
2023-07-29T03:59:48.699Z,20.50
2023-07-29T04:02:16.338Z,18.00
2023-07-29T04:04:45.377Z,18.50
2023-07-29T04:07:12.653Z,18.30
2023-07-29T04:09:39.688Z,18.20
2023-07-29T04:12:06.973Z,17.90
2023-07-29T04:14:33.916Z,17.90
2023-07-29T04:17:00.858Z,18.00
2023-07-29T04:19:27.944Z,18.00
2023-07-29T04:21:54.893Z,17.90
2023-07-29T04:24:24.314Z,18.00
2023-07-29T04:26:51.375Z,18.00
2023-07-29T04:29:18.434Z,18.00
2023-07-29T04:31:45.462Z,18.00
2023-07-29T04:34:12.443Z,18.90
2023-07-29T04:36:39.872Z,18.10
2023-07-29T04:39:07.197Z,18.10
2023-07-29T04:41:34.191Z,18.10
2023-07-29T04:44:01.196Z,18.10
2023-07-29T04:46:28.071Z,18.20
2023-07-29T04:48:54.991Z,20.10
2023-07-29T04:51:22.217Z,18.20
2023-07-29T04:53:49.502Z,18.50
2023-07-29T04:56:18.623Z,20.70
2023-07-29T04:58:46.277Z,18.20
2023-07-29T05:01:13.218Z,19.20
2023-07-29T05:03:41.262Z,18.20
2023-07-29T05:06:08.815Z,18.20
2023-07-29T05:08:35.975Z,18.30
2023-07-29T05:11:02.862Z,18.30
2023-07-29T05:13:29.865Z,18.40
2023-07-29T05:15:57.381Z,18.40
2023-07-29T05:18:24.616Z,18.50
2023-07-29T05:20:51.567Z,19.30
2023-07-29T05:23:18.847Z,19.80
2023-07-29T05:25:46.799Z,18.70
2023-07-29T05:28:13.740Z,18.80
2023-07-29T05:30:41.389Z,20.60
2023-07-29T05:33:11.339Z,18.90
2023-07-29T05:35:40.355Z,19.00
2023-07-29T05:38:09.460Z,19.00
2023-07-29T05:40:36.446Z,19.10
2023-07-29T05:43:04.327Z,19.10
2023-07-29T05:45:32.196Z,19.20
2023-07-29T05:47:59.165Z,19.20
2023-07-29T05:50:26.136Z,19.30
2023-07-29T05:52:53.374Z,19.40
2023-07-29T05:55:20.763Z,19.40
2023-07-29T05:57:47.750Z,19.60
2023-07-29T06:00:15.116Z,19.70
2023-07-29T06:02:45.117Z,19.80
2023-07-29T06:05:16.564Z,19.90
2023-07-29T06:07:46.092Z,20.10
2023-07-29T06:10:20.058Z,20.20
2023-07-29T06:12:47.394Z,20.20
2023-07-29T06:15:14.830Z,20.30
2023-07-29T06:17:42.436Z,20.40
2023-07-29T06:20:09.893Z,20.40
2023-07-29T06:22:36.873Z,20.50
2023-07-29T06:25:04.929Z,20.50
2023-07-29T06:27:32.038Z,20.60
2023-07-29T06:29:58.908Z,20.70
2023-07-29T06:32:25.815Z,20.90
2023-07-29T06:34:55.104Z,21.00
2023-07-29T06:37:22.867Z,21.10
2023-07-29T06:39:49.828Z,21.10
2023-07-29T06:42:16.762Z,21.20
2023-07-29T06:44:43.711Z,21.30
2023-07-29T06:47:10.732Z,21.30
2023-07-29T06:49:37.654Z,21.30
2023-07-29T06:52:04.871Z,21.30
2023-07-29T06:54:31.784Z,21.30
2023-07-29T06:56:58.665Z,21.30
2023-07-29T06:59:25.911Z,21.40
2023-07-29T07:01:52.801Z,21.40
2023-07-29T07:04:19.768Z,21.50
2023-07-29T07:06:46.709Z,21.50
2023-07-29T07:09:13.641Z,21.50
2023-07-29T07:11:40.563Z,21.60
2023-07-29T07:14:07.454Z,21.50
2023-07-29T07:16:34.737Z,21.50
2023-07-29T07:19:01.856Z,21.50
2023-07-29T07:21:29.897Z,21.60
2023-07-29T07:23:56.818Z,21.70
2023-07-29T07:26:23.716Z,21.70
2023-07-29T07:28:50.701Z,21.80
2023-07-29T07:31:20.343Z,21.80
2023-07-29T07:33:47.589Z,21.80
2023-07-29T07:36:14.493Z,21.80
2023-07-29T07:38:41.426Z,21.80
2023-07-29T07:41:08.411Z,21.80
2023-07-29T07:43:35.317Z,21.80
2023-07-29T07:46:02.733Z,22.00
2023-07-29T07:48:29.871Z,22.20
2023-07-29T07:50:56.836Z,22.50
2023-07-29T07:53:23.740Z,22.70
2023-07-29T07:55:50.704Z,22.90
2023-07-29T07:58:17.711Z,23.00
2023-07-29T08:00:44.616Z,23.00
2023-07-29T08:03:11.712Z,23.10
2023-07-29T08:05:38.738Z,23.00
2023-07-29T08:08:05.689Z,23.00
2023-07-29T08:10:32.595Z,22.90
2023-07-29T08:13:00.433Z,23.00
2023-07-29T08:15:27.363Z,23.00
2023-07-29T08:17:54.299Z,23.00
2023-07-29T08:20:21.232Z,23.00
2023-07-29T08:22:48.131Z,23.00
2023-07-29T08:25:15.029Z,23.10
2023-07-29T08:27:41.922Z,23.30
2023-07-29T08:30:09.902Z,23.30
2023-07-29T08:32:36.997Z,23.20
2023-07-29T08:35:04.380Z,23.20
2023-07-29T08:37:32.667Z,23.30
2023-07-29T08:39:59.669Z,23.30
2023-07-29T08:42:32.306Z,23.30
2023-07-29T08:45:03.268Z,23.30
2023-07-29T08:47:30.476Z,23.30
2023-07-29T08:49:57.413Z,23.40
2023-07-29T08:52:24.421Z,23.40
2023-07-29T08:54:51.554Z,23.50
2023-07-29T08:57:18.508Z,23.60
2023-07-29T08:59:46.793Z,23.80
2023-07-29T09:02:13.711Z,23.90
2023-07-29T09:04:40.669Z,24.10
2023-07-29T09:07:07.894Z,24.10
2023-07-29T09:09:34.791Z,24.10
2023-07-29T09:12:01.714Z,24.20
2023-07-29T09:14:28.839Z,24.30
2023-07-29T09:16:55.868Z,24.40
2023-07-29T09:19:25.647Z,24.40
2023-07-29T09:21:52.548Z,24.60
2023-07-29T09:24:20.204Z,24.70
2023-07-29T09:26:50.974Z,24.80
2023-07-29T09:29:18.325Z,24.90
2023-07-29T09:31:45.462Z,24.70
2023-07-29T09:34:12.866Z,25.10
2023-07-29T09:36:39.990Z,25.20
2023-07-29T09:39:12.126Z,25.30
2023-07-29T09:41:39.008Z,25.50
2023-07-29T09:44:06.039Z,25.70
2023-07-29T09:46:38.024Z,25.80
2023-07-29T09:49:06.085Z,26.10
2023-07-29T09:51:33.152Z,26.40
2023-07-29T09:54:00.172Z,26.60
2023-07-29T09:56:27.805Z,26.80
2023-07-29T09:58:56.962Z,26.90
2023-07-29T10:01:24.185Z,27.10
2023-07-29T10:03:51.234Z,27.30
2023-07-29T10:06:18.201Z,27.30
2023-07-29T10:08:45.087Z,27.30
2023-07-29T10:11:12.401Z,27.20
2023-07-29T10:13:39.465Z,27.10
2023-07-29T10:16:06.851Z,26.90
2023-07-29T10:18:34.159Z,26.90
2023-07-29T10:21:01.722Z,26.70
2023-07-29T10:23:29.295Z,26.70
2023-07-29T10:26:07.431Z,26.60
2023-07-29T10:28:35.873Z,26.60
2023-07-29T10:31:03.114Z,26.60
2023-07-29T10:33:30.090Z,26.60
2023-07-29T10:35:57.174Z,26.50
2023-07-29T10:38:25.483Z,26.50
2023-07-29T10:41:02.019Z,26.40
2023-07-29T10:43:35.603Z,26.40
2023-07-29T10:46:19.337Z,26.30
2023-07-29T10:48:52.241Z,26.50
2023-07-29T10:51:34.110Z,26.50
2023-07-29T10:54:12.110Z,26.70
2023-07-29T10:56:42.419Z,26.80
2023-07-29T10:59:33.918Z,26.80
2023-07-29T11:02:01.481Z,26.90
2023-07-29T11:04:30.579Z,27.00
2023-07-29T11:07:08.311Z,27.10
2023-07-29T11:09:52.779Z,26.90
2023-07-29T11:12:43.657Z,26.90
2023-07-29T11:15:11.382Z,26.90
2023-07-29T11:17:43.036Z,26.90
2023-07-29T11:20:10.744Z,26.90
2023-07-29T11:22:38.003Z,26.90
2023-07-29T11:25:06.507Z,24.70
2023-07-29T11:27:33.816Z,26.90
2023-07-29T11:30:01.774Z,26.80
2023-07-29T11:32:28.713Z,26.70
2023-07-29T11:34:55.760Z,26.70
2023-07-29T11:37:23.002Z,26.70
2023-07-29T11:39:50.204Z,26.70
2023-07-29T11:42:17.204Z,26.70
2023-07-29T11:44:44.228Z,26.80
2023-07-29T11:47:12.105Z,26.80
2023-07-29T11:49:42.082Z,26.90
2023-07-29T11:52:11.741Z,26.80
2023-07-29T11:54:38.931Z,26.70
2023-07-29T11:57:08.324Z,26.70
2023-07-29T11:59:36.543Z,26.50
2023-07-29T12:02:08.270Z,26.30
2023-07-29T12:04:35.838Z,26.20
2023-07-29T12:07:03.037Z,26.10
2023-07-29T12:09:29.964Z,26.10
2023-07-29T12:11:56.894Z,26.10
2023-07-29T12:14:26.477Z,26.00
2023-07-29T12:16:54.139Z,26.00
2023-07-29T12:19:23.109Z,26.10
2023-07-29T12:21:50.479Z,26.10
2023-07-29T12:24:17.342Z,26.10
2023-07-29T12:26:44.234Z,26.00
2023-07-29T12:29:21.189Z,26.00
2023-07-29T12:31:48.428Z,26.00
2023-07-29T12:34:21.665Z,26.00
2023-07-29T12:36:52.405Z,26.00
2023-07-29T12:39:29.813Z,25.90
2023-07-29T12:42:00.379Z,25.90
2023-07-29T12:44:30.399Z,25.90
2023-07-29T12:46:57.387Z,25.80
2023-07-29T12:49:24.353Z,25.70
2023-07-29T12:51:51.245Z,25.70
2023-07-29T12:54:18.166Z,25.70
2023-07-29T12:56:45.053Z,25.60
2023-07-29T12:59:11.971Z,25.50
2023-07-29T13:01:38.865Z,25.50
2023-07-29T13:04:05.820Z,25.50
2023-07-29T13:06:35.344Z,25.30
2023-07-29T13:09:02.402Z,25.30
2023-07-29T13:11:29.300Z,25.20
2023-07-29T13:13:56.234Z,25.10
2023-07-29T13:16:23.162Z,25.10
2023-07-29T13:18:50.073Z,25.00
2023-07-29T13:21:16.979Z,24.90
2023-07-29T13:23:43.891Z,24.80
2023-07-29T13:26:12.338Z,24.80
2023-07-29T13:28:39.245Z,24.60
2023-07-29T13:31:06.159Z,24.60
2023-07-29T13:33:35.176Z,24.50
2023-07-29T13:36:04.189Z,24.50
2023-07-29T13:38:31.234Z,24.40
2023-07-29T13:40:58.211Z,24.40
2023-07-29T13:43:25.254Z,24.30
2023-07-29T13:45:52.162Z,24.40
2023-07-29T13:48:19.237Z,24.40
2023-07-29T13:50:46.483Z,24.30
2023-07-29T13:53:13.363Z,24.40
2023-07-29T13:55:40.259Z,24.30
2023-07-29T13:58:07.167Z,24.30
2023-07-29T14:00:34.255Z,24.20
2023-07-29T14:03:01.279Z,24.30
2023-07-29T14:05:28.658Z,24.30
2023-07-29T14:07:55.573Z,24.30
2023-07-29T14:10:23.215Z,24.30
2023-07-29T14:12:50.819Z,24.20
2023-07-29T14:15:18.178Z,24.10
2023-07-29T14:17:46.365Z,23.90
2023-07-29T14:20:15.306Z,23.70
2023-07-29T14:22:43.301Z,23.60
2023-07-29T14:25:10.417Z,23.40
2023-07-29T14:27:38.256Z,23.30
2023-07-29T14:30:06.639Z,23.20
2023-07-29T14:32:33.666Z,23.10
2023-07-29T14:35:04.684Z,23.00
2023-07-29T14:37:32.279Z,22.90
2023-07-29T14:39:59.608Z,22.70
2023-07-29T14:42:26.650Z,22.50
2023-07-29T14:44:53.582Z,22.30
2023-07-29T14:47:20.551Z,22.10
2023-07-29T14:49:47.444Z,22.10
2023-07-29T14:52:14.493Z,22.10
2023-07-29T14:54:41.528Z,21.90
2023-07-29T14:57:08.684Z,21.80
2023-07-29T14:59:35.616Z,21.70
2023-07-29T15:02:02.583Z,21.60
2023-07-29T15:04:29.606Z,21.50
2023-07-29T15:06:56.479Z,21.30
2023-07-29T15:09:23.374Z,21.30
2023-07-29T15:11:50.333Z,21.30
2023-07-29T15:14:17.597Z,21.20
2023-07-29T15:16:44.509Z,21.30
2023-07-29T15:19:11.434Z,21.10
2023-07-29T15:21:38.305Z,22.10
2023-07-29T15:24:05.336Z,20.90
2023-07-29T15:26:32.364Z,20.90
2023-07-29T15:29:01.038Z,20.90
2023-07-29T15:31:27.921Z,20.90
2023-07-29T15:33:54.901Z,21.00
2023-07-29T15:36:21.827Z,20.90
2023-07-29T15:38:48.799Z,21.00
2023-07-29T15:41:15.678Z,20.90
2023-07-29T15:43:42.565Z,20.80
2023-07-29T15:46:09.677Z,20.90
2023-07-29T15:48:36.850Z,20.80
2023-07-29T15:51:04.031Z,20.90
2023-07-29T15:53:31.008Z,21.00
2023-07-29T15:55:58.759Z,21.10
2023-07-29T15:58:25.685Z,21.10
2023-07-29T16:00:52.580Z,21.20
2023-07-29T16:03:19.521Z,21.20
2023-07-29T16:05:48.312Z,21.20
2023-07-29T16:08:15.409Z,21.30
2023-07-29T16:10:42.342Z,21.30
2023-07-29T16:13:09.420Z,21.40
2023-07-29T16:15:36.341Z,21.30
2023-07-29T16:18:03.288Z,21.40
2023-07-29T16:20:30.217Z,21.40
2023-07-29T16:22:57.284Z,21.30
2023-07-29T16:25:24.173Z,21.30
2023-07-29T16:27:51.160Z,21.30
2023-07-29T16:30:18.154Z,21.30
2023-07-29T16:32:45.156Z,21.30
2023-07-29T16:35:12.120Z,21.30
2023-07-29T16:37:39.000Z,21.20
2023-07-29T16:40:07.948Z,21.20
2023-07-29T16:42:34.910Z,21.10
2023-07-29T16:45:01.989Z,21.10
2023-07-29T16:47:30.295Z,21.00
2023-07-29T16:50:06.381Z,21.00
2023-07-29T16:52:36.394Z,21.10
2023-07-29T16:55:03.298Z,20.90
2023-07-29T16:57:30.264Z,20.90
2023-07-29T16:59:57.151Z,20.90
2023-07-29T17:02:24.603Z,20.90
2023-07-29T17:04:51.500Z,20.80
2023-07-29T17:07:18.450Z,20.90
2023-07-29T17:09:48.367Z,20.70
2023-07-29T17:12:15.321Z,20.60
2023-07-29T17:14:42.367Z,20.60
2023-07-29T17:17:09.714Z,20.50
2023-07-29T17:19:37.076Z,20.60
2023-07-29T17:22:04.256Z,20.50
2023-07-29T17:24:31.349Z,20.40
2023-07-29T17:26:58.315Z,20.40
2023-07-29T17:29:26.112Z,20.50
2023-07-29T17:31:53.309Z,20.40
2023-07-29T17:34:22.130Z,20.40
2023-07-29T17:36:49.128Z,20.50
2023-07-29T17:39:16.183Z,20.40
2023-07-29T17:41:43.250Z,20.30
2023-07-29T17:44:10.293Z,20.30
2023-07-29T17:46:37.528Z,20.20
2023-07-29T17:49:04.824Z,20.10
2023-07-29T17:51:31.726Z,20.10
2023-07-29T17:53:58.655Z,20.00
2023-07-29T17:56:27.398Z,19.90
2023-07-29T17:58:54.422Z,19.90
2023-07-29T18:01:21.428Z,19.80
2023-07-29T18:03:48.427Z,19.80
2023-07-29T18:06:16.218Z,19.90
2023-07-29T18:08:43.321Z,19.80
2023-07-29T18:11:10.298Z,20.20
2023-07-29T18:13:37.279Z,19.80
2023-07-29T18:16:04.441Z,19.80
2023-07-29T18:18:31.420Z,19.80
2023-07-29T18:20:58.313Z,21.00
2023-07-29T18:23:25.963Z,19.70
2023-07-29T18:25:54.187Z,19.70
2023-07-29T18:28:21.592Z,19.60
2023-07-29T18:30:51.435Z,19.70
2023-07-29T18:33:18.500Z,21.00
2023-07-29T18:35:45.465Z,19.70
2023-07-29T18:38:12.445Z,19.60
2023-07-29T18:40:42.264Z,19.60
2023-07-29T18:43:10.779Z,19.60
2023-07-29T18:45:37.925Z,19.50
2023-07-29T18:48:05.770Z,19.40
2023-07-29T18:50:32.861Z,19.50
2023-07-29T18:52:59.892Z,19.40
2023-07-29T18:55:28.534Z,19.40
2023-07-29T18:57:56.339Z,19.30
2023-07-29T19:00:23.365Z,19.30
2023-07-29T19:02:50.399Z,19.20
2023-07-29T19:05:17.494Z,19.20
2023-07-29T19:07:44.388Z,19.20
2023-07-29T19:10:11.355Z,19.20
2023-07-29T19:12:39.620Z,19.20
2023-07-29T19:15:07.959Z,19.10
2023-07-29T19:17:35.736Z,19.10
2023-07-29T19:20:06.987Z,19.00
2023-07-29T19:22:33.918Z,19.00
2023-07-29T19:25:01.098Z,21.60
2023-07-29T19:27:28.082Z,18.90
2023-07-29T19:29:55.138Z,21.50
2023-07-29T19:32:23.737Z,18.80
2023-07-29T19:34:57.246Z,19.30
2023-07-29T19:37:24.493Z,18.80
2023-07-29T19:39:51.402Z,18.80
2023-07-29T19:42:21.090Z,18.70
2023-07-29T19:44:48.520Z,19.40
2023-07-29T19:47:15.457Z,18.80
2023-07-29T19:49:42.376Z,21.50
2023-07-29T19:52:09.273Z,20.10
2023-07-29T19:54:36.319Z,18.70
2023-07-29T19:57:03.467Z,18.70
2023-07-29T19:59:42.193Z,18.70
2023-07-29T20:02:14.044Z,19.40
2023-07-29T20:04:41.299Z,18.60
2023-07-29T20:07:08.244Z,18.60
2023-07-29T20:09:35.186Z,18.60
2023-07-29T20:12:02.122Z,18.50
2023-07-29T20:14:28.981Z,19.00
2023-07-29T20:16:55.888Z,19.30
2023-07-29T20:19:22.783Z,19.20
2023-07-29T20:21:49.819Z,18.50
2023-07-29T20:24:16.715Z,21.00
2023-07-29T20:26:43.628Z,18.40
2023-07-29T20:29:10.557Z,19.90
2023-07-29T20:31:38.086Z,18.30
2023-07-29T20:34:05.765Z,18.40
2023-07-29T20:36:32.877Z,18.40
2023-07-29T20:38:59.833Z,20.90
2023-07-29T20:41:26.834Z,19.20
2023-07-29T20:43:53.829Z,19.20
2023-07-29T20:46:21.970Z,18.90
2023-07-29T20:48:49.344Z,18.40
2023-07-29T20:51:18.068Z,18.40
2023-07-29T20:53:45.365Z,18.40
2023-07-29T20:56:13.585Z,19.10
2023-07-29T20:58:40.566Z,18.60
2023-07-29T21:01:07.537Z,18.60
2023-07-29T21:03:34.553Z,18.60
2023-07-29T21:06:01.579Z,18.60
2023-07-29T21:08:28.486Z,19.00
2023-07-29T21:10:55.745Z,18.60
2023-07-29T21:13:23.591Z,21.30
2023-07-29T21:15:54.285Z,18.60
2023-07-29T21:18:21.407Z,18.60
2023-07-29T21:20:48.705Z,18.60
2023-07-29T21:23:15.732Z,18.50
2023-07-29T21:25:48.235Z,18.60
2023-07-29T21:28:16.095Z,18.60
2023-07-29T21:30:43.123Z,18.60
2023-07-29T21:33:10.112Z,18.50
2023-07-29T21:35:37.144Z,19.80
2023-07-29T21:38:15.090Z,18.60
2023-07-29T21:40:51.235Z,18.50
2023-07-29T21:43:18.378Z,18.50
2023-07-29T21:45:46.141Z,18.80
2023-07-29T21:48:13.157Z,18.50
2023-07-29T21:50:41.914Z,18.50
2023-07-29T21:53:08.809Z,18.50
2023-07-29T21:55:35.757Z,21.20
2023-07-29T21:58:02.692Z,18.40
2023-07-29T22:00:29.721Z,18.40
2023-07-29T22:02:56.708Z,18.40
2023-07-29T22:05:23.609Z,18.40
2023-07-29T22:07:50.537Z,20.50
2023-07-29T22:10:17.554Z,20.80
2023-07-29T22:12:45.232Z,15.20
2023-07-29T22:15:12.313Z,18.40
2023-07-29T22:17:39.265Z,18.40
2023-07-29T22:20:06.980Z,19.80
2023-07-29T22:22:33.932Z,18.30
2023-07-29T22:25:00.950Z,18.30
2023-07-29T22:27:27.887Z,18.20
2023-07-29T22:29:54.778Z,19.10
2023-07-29T22:32:21.756Z,18.20
2023-07-29T22:34:48.749Z,18.10
2023-07-29T22:37:15.634Z,18.10
2023-07-29T22:39:44.281Z,18.00
2023-07-29T22:42:11.252Z,19.50
2023-07-29T22:44:38.158Z,17.90
2023-07-29T22:47:05.355Z,17.90
2023-07-29T22:49:32.386Z,17.90
2023-07-29T22:51:59.268Z,17.80
2023-07-29T22:54:26.171Z,17.80
2023-07-29T22:56:53.061Z,17.70
2023-07-29T22:59:19.959Z,17.70
2023-07-29T23:01:46.908Z,20.00
2023-07-29T23:04:13.818Z,18.70
2023-07-29T23:06:40.772Z,18.70
2023-07-29T23:09:07.704Z,17.60
2023-07-29T23:11:34.872Z,17.90
2023-07-29T23:14:02.055Z,17.50
2023-07-29T23:16:29.053Z,17.50
2023-07-29T23:18:55.916Z,17.40
2023-07-29T23:21:22.799Z,17.40
2023-07-29T23:23:49.722Z,17.40
2023-07-29T23:26:16.580Z,17.40
2023-07-29T23:28:43.492Z,17.40
2023-07-29T23:31:10.400Z,17.40
2023-07-29T23:33:37.282Z,20.00
2023-07-29T23:36:04.457Z,17.40
2023-07-29T23:38:31.569Z,17.40
2023-07-29T23:40:58.487Z,19.00
2023-07-29T23:43:25.374Z,18.00
2023-07-29T23:45:52.363Z,17.40
2023-07-29T23:48:19.306Z,17.40
2023-07-29T23:50:46.201Z,17.40
2023-07-29T23:53:13.140Z,18.10
2023-07-29T23:55:40.022Z,17.40
2023-07-29T23:58:06.890Z,17.60
